Time;durP1;ratioP1;P1;durP2;ratioP2;P2;SDS_P1;SDS_P2;PMS_P1;PMS_P2;Temp;Humidity;BMP_temperature;BMP_pressure;BME280_temperature;BME280_humidity;BME280_pressure;Samples;Min_cycle;Max_cycle;Signal;HPM_P1;HPM_P2
2021/09/26 00:32:23;;;;;;;4.47;3.60;;;;;;;13.59;98.71;100600.91;1779879;80;22214;-52
2021/09/26 00:34:49;;;;;;;10.30;4.40;;;;;;;13.61;98.67;100601.72;1758579;81;20924;-50
2021/09/26 00:37:15;;;;;;;19.23;4.65;;;;;;;13.63;98.43;100603.83;1758860;81;21096;-49
2021/09/26 00:39:42;;;;;;;14.87;3.83;;;;;;;13.63;98.29;100605.12;1724300;81;20991;-50
2021/09/26 00:42:09;;;;;;;60.58;5.47;;;;;;;13.66;98.13;100610.23;1758563;81;21002;-49
2021/09/26 00:44:35;;;;;;;29.27;4.60;;;;;;;13.65;97.91;100605.50;1758624;81;21520;-50
2021/09/26 00:47:01;;;;;;;65.75;5.47;;;;;;;13.68;97.85;100607.14;1758501;81;21888;-50
2021/09/26 00:49:28;;;;;;;25.72;4.35;;;;;;;13.70;97.83;100609.71;1758420;81;22347;-50
2021/09/26 00:51:54;;;;;;;43.65;4.75;;;;;;;13.71;97.86;100609.65;1758522;81;21571;-51
2021/09/26 00:54:21;;;;;;;16.10;3.62;;;;;;;13.75;97.78;100615.16;1758464;81;20971;-51
2021/09/26 00:56:49;;;;;;;4.92;3.58;;;;;;;13.76;97.87;100609.52;1724913;81;20951;-54
2021/09/26 00:59:18;;;;;;;26.68;5.62;;;;;;;13.77;98.15;100608.19;1757566;81;20900;-54
2021/09/26 01:01:45;;;;;;;18.42;4.72;;;;;;;13.82;98.21;100608.50;1758002;81;21167;-54
2021/09/26 01:04:12;;;;;;;11.60;4.33;;;;;;;13.85;98.21;100600.13;1758593;81;20943;-51
2021/09/26 01:06:56;;;;;;;12.43;5.50;;;;;;;13.89;98.29;100604.81;1758520;81;21002;-50
2021/09/26 01:09:43;;;;;;;15.60;5.08;;;;;;;13.94;98.09;100608.12;1758791;81;21078;-53
2021/09/26 01:12:37;;;;;;;33.78;6.33;;;;;;;14.03;97.85;100611.77;1758500;81;20995;-53
2021/09/26 01:15:14;;;;;;;21.33;5.22;;;;;;;14.10;97.49;100603.77;1758363;81;21052;-52
2021/09/26 01:17:49;;;;;;;15.00;4.58;;;;;;;14.17;97.05;100593.12;1758366;81;20940;-50
2021/09/26 01:20:43;;;;;;;13.85;4.45;;;;;;;14.23;96.67;100584.23;1758097;81;20995;-52
2021/09/26 01:23:36;;;;;;;9.23;4.22;;;;;;;14.29;96.28;100596.22;1717678;81;20979;-54
2021/09/26 01:26:37;;;;;;;29.05;6.00;;;;;;;14.31;96.07;100599.19;1754953;80;20904;-51
2021/09/26 01:29:14;;;;;;;16.17;4.40;;;;;;;14.34;96.07;100593.88;1757276;81;21217;-51
2021/09/26 01:31:46;;;;;;;32.28;4.95;;;;;;;14.36;96.03;100613.34;1725796;81;20897;-53
2021/09/26 01:34:23;;;;;;;26.40;4.60;;;;;;;14.39;95.84;100615.02;1756574;81;20980;-55
2021/09/26 01:36:58;;;;;;;24.95;5.83;;;;;;;14.42;95.62;100624.89;1755212;81;22084;-54
2021/09/26 01:39:28;;;;;;;7.10;3.77;;;;;;;14.46;95.47;100610.86;1755003;81;21390;-53
2021/09/26 01:42:30;;;;;;;17.92;5.00;;;;;;;14.47;95.32;100620.81;1756607;81;22245;-55
2021/09/26 01:45:10;;;;;;;11.60;4.90;;;;;;;14.47;95.46;100615.61;1704356;80;20939;-53
2021/09/26 01:47:45;;;;;;;12.35;4.05;;;;;;;14.44;95.64;100620.92;1726438;81;21513;-54
2021/09/26 01:50:14;;;;;;;28.38;4.87;;;;;;;14.42;95.96;100620.98;1756153;80;20971;-51
2021/09/26 01:52:42;;;;;;;18.32;4.40;;;;;;;14.39;96.32;100615.84;1756729;81;21029;-54
2021/09/26 01:55:09;;;;;;;23.95;5.30;;;;;;;14.34;96.73;100618.62;1756533;80;21123;-53
2021/09/26 01:57:40;;;;;;;21.20;5.90;;;;;;;14.28;97.07;100614.91;1756612;81;21432;-51
2021/09/26 02:00:09;;;;;;;41.55;5.85;;;;;;;14.25;97.41;100613.68;1756362;81;21055;-53
2021/09/26 02:02:39;;;;;;;13.70;4.87;;;;;;;14.24;97.54;100614.58;1756701;81;20987;-55
2021/09/26 02:05:07;;;;;;;27.22;5.22;;;;;;;14.24;97.58;100614.58;1756374;81;20972;-52
2021/09/26 02:07:38;;;;;;;17.40;4.75;;;;;;;14.25;97.56;100624.56;1756852;81;21748;-53
2021/09/26 02:10:05;;;;;;;23.77;6.40;;;;;;;14.25;97.43;100620.19;1756082;81;20988;-55
2021/09/26 02:12:32;;;;;;;24.80;5.72;;;;;;;14.27;97.26;100617.08;1723014;81;20924;-55
2021/09/26 02:15:00;;;;;;;14.13;4.85;;;;;;;14.31;96.98;100625.66;1756323;80;21030;-55
2021/09/26 02:17:27;;;;;;;14.18;4.55;;;;;;;14.34;96.72;100625.56;1756622;81;20991;-54
2021/09/26 02:19:59;;;;;;;12.37;4.55;;;;;;;14.36;96.53;100635.04;1756660;80;21819;-52
2021/09/26 02:22:23;;;;;;;5.95;4.40;;;;;;;14.38;96.25;100634.98;1722031;81;20987;-53
2021/09/26 02:24:50;;;;;;;11.40;4.62;;;;;;;14.39;96.19;100634.07;1756319;81;20975;-54
2021/09/26 02:27:16;;;;;;;13.80;4.80;;;;;;;14.39;96.04;100631.94;1756825;81;21003;-54
2021/09/26 02:29:42;;;;;;;12.18;4.70;;;;;;;14.39;96.09;100638.45;1756349;81;20900;-53
2021/09/26 02:32:09;;;;;;;6.87;4.30;;;;;;;14.40;95.96;100637.55;1662329;82;22597;-55
2021/09/26 02:34:35;;;;;;;10.32;4.40;;;;;;;14.42;95.61;100650.06;1734484;82;21034;-52
2021/09/26 02:37:01;;;;;;;18.05;4.72;;;;;;;14.44;95.59;100647.83;1734383;82;21003;-56
2021/09/26 02:39:28;;;;;;;10.03;3.77;;;;;;;14.45;95.62;100641.72;1734273;82;20995;-51
2021/09/26 02:42:15;;;;;;;5.08;3.85;;;;;;;14.47;95.47;100658.14;1734695;82;20952;-53
2021/09/26 02:45:11;;;;;;;9.88;4.55;;;;;;;14.48;95.34;100659.84;1733277;82;21156;-50
2021/09/26 02:48:04;;;;;;;5.78;3.87;;;;;;;14.49;95.34;100654.17;1704094;83;20972;-53
2021/09/26 02:50:30;;;;;;;10.05;4.83;;;;;;;14.49;95.29;100661.98;1704154;84;20972;-53
2021/09/26 02:52:57;;;;;;;7.30;4.08;;;;;;;14.48;95.26;100661.15;1684107;84;21018;-52
2021/09/26 02:55:24;;;;;;;7.40;4.10;;;;;;;14.49;95.22;100660.68;1704046;84;20986;-55
2021/09/26 02:57:51;;;;;;;9.90;3.90;;;;;;;14.49;95.13;100653.73;1704176;84;21137;-53
2021/09/26 03:00:18;;;;;;;5.25;4.10;;;;;;;14.51;95.21;100660.18;1704118;84;20991;-53
2021/09/26 03:02:47;;;;;;;5.80;4.28;;;;;;;14.49;95.12;100661.55;1651282;84;22290;-52
2021/09/26 03:05:13;;;;;;;6.55;4.90;;;;;;;14.49;95.19;100665.89;1704163;83;21012;-55
2021/09/26 03:07:39;;;;;;;5.33;4.53;;;;;;;14.47;95.07;100665.09;1704316;83;20932;-57
2021/09/26 03:10:08;;;;;;;4.50;4.10;;;;;;;14.48;95.19;100668.96;1704120;84;21159;-55
2021/09/26 03:12:34;;;;;;;7.47;4.40;;;;;;;14.48;95.26;100666.80;1704376;84;21480;-54
2021/09/26 03:15:01;;;;;;;7.87;4.65;;;;;;;14.46;95.37;100667.30;1704038;83;20968;-57
2021/09/26 03:17:29;;;;;;;7.70;4.00;;;;;;;14.44;95.55;100668.66;1704214;84;20991;-58
2021/09/26 03:19:55;;;;;;;7.95;4.15;;;;;;;14.43;95.65;100676.51;1683736;84;21528;-57
2021/09/26 03:22:21;;;;;;;4.75;4.40;;;;;;;14.43;95.78;100681.72;1704254;84;21163;-54
2021/09/26 03:24:48;;;;;;;11.65;4.70;;;;;;;14.42;95.76;100682.18;1703998;84;20979;-52
2021/09/26 03:27:14;;;;;;;6.87;4.35;;;;;;;14.44;95.75;100670.39;1704268;84;21066;-52
2021/09/26 03:29:42;;;;;;;7.90;4.33;;;;;;;14.44;95.59;100680.38;1704486;84;20944;-55
2021/09/26 03:32:09;;;;;;;13.28;4.58;;;;;;;14.45;95.59;100683.39;1715868;82;21619;-54
2021/09/26 03:34:36;;;;;;;9.43;4.78;;;;;;;14.46;95.63;100686.39;1726408;81;21787;-54
2021/09/26 03:37:02;;;;;;;5.75;4.97;;;;;;;14.46;95.55;100682.48;1726509;83;21050;-54
2021/09/26 03:39:29;;;;;;;9.63;5.08;;;;;;;14.49;95.56;100690.63;1726261;83;21014;-52
2021/09/26 03:41:55;;;;;;;5.58;4.85;;;;;;;14.48;95.67;100686.33;1726155;83;20927;-56
2021/09/26 03:44:21;;;;;;;7.45;4.92;;;;;;;14.47;95.68;100682.89;1726668;83;20986;-51
2021/09/26 03:46:48;;;;;;;5.17;3.90;;;;;;;14.47;95.70;100688.53;1726310;83;21137;-53
2021/09/26 03:49:14;;;;;;;8.15;4.45;;;;;;;14.47;95.87;100692.00;1726665;83;20997;-54
2021/09/26 03:51:42;;;;;;;15.38;5.17;;;;;;;14.46;95.90;100694.20;1726211;82;20935;-54
2021/09/26 03:54:09;;;;;;;5.60;4.65;;;;;;;14.46;95.96;100695.94;1726282;82;20974;-56
2021/09/26 03:56:35;;;;;;;9.08;4.95;;;;;;;14.46;96.14;100697.24;1726224;83;20966;-53
2021/09/26 03:59:01;;;;;;;9.93;4.15;;;;;;;14.46;96.12;100707.22;1726325;83;21246;-52
2021/09/26 04:01:28;;;;;;;7.75;4.33;;;;;;;14.46;96.12;100704.63;1726195;83;21446;-53
2021/09/26 04:03:54;;;;;;;8.60;4.92;;;;;;;14.47;96.20;100711.97;1726293;83;21022;-53
2021/09/26 04:06:20;;;;;;;6.83;4.53;;;;;;;14.48;96.11;100708.46;1697066;83;21025;-57
2021/09/26 04:08:47;;;;;;;5.22;4.72;;;;;;;14.47;96.16;100712.84;1726300;83;21026;-56
2021/09/26 04:11:13;;;;;;;15.18;4.85;;;;;;;14.47;96.14;100721.09;1697091;83;21189;-54
2021/09/26 04:13:39;;;;;;;9.45;5.30;;;;;;;14.47;96.16;100714.58;1726229;81;20935;-55
2021/09/26 04:16:06;;;;;;;10.00;4.90;;;;;;;14.48;96.12;100713.67;1726323;83;21017;-53
2021/09/26 04:18:33;;;;;;;5.10;4.37;;;;;;;14.49;95.95;100721.45;1726155;83;20977;-55
2021/09/26 04:20:59;;;;;;;6.20;5.60;;;;;;;14.50;95.96;100723.59;1726163;83;21003;-56
2021/09/26 04:23:26;;;;;;;9.15;6.17;;;;;;;14.50;95.89;100720.98;1726282;83;21024;-54
2021/09/26 04:25:53;;;;;;;10.53;7.08;;;;;;;14.52;95.89;100724.39;1726226;83;20991;-51
2021/09/26 04:28:19;;;;;;;15.00;7.83;;;;;;;14.53;95.84;100724.83;1726655;83;20991;-56
2021/09/26 04:30:45;;;;;;;10.65;7.12;;;;;;;14.53;95.74;100711.80;1726153;83;21527;-57
2021/09/26 04:33:12;;;;;;;10.10;6.92;;;;;;;14.56;95.63;100709.53;1742956;82;21023;-53
2021/09/26 04:35:38;;;;;;;7.35;4.95;;;;;;;14.58;95.42;100715.55;1746441;82;21132;-55
2021/09/26 04:38:05;;;;;;;9.43;5.30;;;;;;;14.62;95.11;100711.94;1746313;82;20984;-54
2021/09/26 04:40:31;;;;;;;5.85;4.50;;;;;;;14.65;95.02;100711.84;1746036;82;20937;-55
2021/09/26 04:42:58;;;;;;;4.58;4.17;;;;;;;14.64;94.74;100718.82;1746298;82;21477;-56
2021/09/26 04:45:25;;;;;;;10.15;4.37;;;;;;;14.65;94.75;100724.43;1746659;82;21014;-55
2021/09/26 04:47:52;;;;;;;14.05;3.62;;;;;;;14.65;93.68;100727.03;1746280;82;21283;-54
2021/09/26 04:50:18;;;;;;;6.35;3.98;;;;;;;14.70;93.93;100733.85;1746314;82;20932;-53
2021/09/26 04:52:44;;;;;;;6.37;3.83;;;;;;;14.72;93.62;100725.56;1746163;82;20913;-56
2021/09/26 04:55:11;;;;;;;6.33;4.78;;;;;;;14.73;93.46;100735.09;1746409;82;21439;-56
2021/09/26 04:57:37;;;;;;;8.53;3.87;;;;;;;14.74;93.11;100735.05;1746292;82;21003;-55
2021/09/26 05:00:06;;;;;;;5.25;3.60;;;;;;;14.74;93.30;100740.27;1746478;82;21118;-55
2021/09/26 05:02:32;;;;;;;5.00;4.05;;;;;;;14.74;93.55;100734.19;1746124;82;21034;-57
2021/09/26 05:04:59;;;;;;;6.62;4.15;;;;;;;14.70;93.04;100743.84;1746582;82;20913;-53
2021/09/26 05:07:25;;;;;;;5.97;3.67;;;;;;;14.68;92.41;100739.56;1746318;82;21031;-55
2021/09/26 05:09:52;;;;;;;4.65;3.72;;;;;;;14.62;92.25;100738.86;1746557;82;21047;-53
2021/09/26 05:12:18;;;;;;;10.35;3.92;;;;;;;14.62;91.87;100747.98;1746433;81;21212;-54
2021/09/26 05:14:44;;;;;;;11.22;4.47;;;;;;;14.65;91.49;100743.97;1746396;82;20948;-56
2021/09/26 05:17:11;;;;;;;12.07;3.98;;;;;;;14.69;91.01;100727.80;1746356;82;20936;-55
2021/09/26 05:19:37;;;;;;;7.37;3.85;;;;;;;14.72;91.15;100733.38;1746340;81;20976;-55
2021/09/26 05:22:04;;;;;;;8.53;4.08;;;;;;;14.76;91.09;100738.89;1746390;82;20948;-57
2021/09/26 05:24:31;;;;;;;7.87;3.60;;;;;;;14.81;91.39;100742.23;1746330;82;21797;-55
2021/09/26 05:26:57;;;;;;;8.85;3.90;;;;;;;14.81;90.25;100737.02;1746187;82;21524;-52
2021/09/26 05:29:24;;;;;;;10.95;4.12;;;;;;;14.83;90.33;100749.55;1746566;82;21502;-55
2021/09/26 05:31:50;;;;;;;7.03;3.67;;;;;;;14.84;90.24;100739.96;1746318;82;21529;-55
2021/09/26 05:34:16;;;;;;;5.50;3.47;;;;;;;14.87;90.27;100743.34;1746243;82;21494;-54
2021/09/26 05:36:43;;;;;;;7.40;3.55;;;;;;;14.90;90.12;100744.53;1746396;82;21300;-54
2021/09/26 05:39:09;;;;;;;5.12;3.40;;;;;;;14.96;90.14;100750.02;1746079;82;21022;-55
2021/09/26 05:41:36;;;;;;;4.85;3.35;;;;;;;15.03;89.91;100746.73;1746332;82;21039;-55
2021/09/26 05:44:02;;;;;;;5.95;3.77;;;;;;;15.07;88.97;100743.15;1746368;82;20904;-57
2021/09/26 05:46:29;;;;;;;4.08;3.15;;;;;;;15.07;88.06;100748.36;1746440;82;20984;-54
2021/09/26 05:48:56;;;;;;;7.03;3.02;;;;;;;15.11;88.26;100752.57;1681272;82;21187;-53
2021/09/26 05:51:22;;;;;;;17.50;4.30;;;;;;;15.10;87.07;100750.87;1746590;82;20952;-55
2021/09/26 05:53:49;;;;;;;5.67;2.95;;;;;;;15.13;86.79;100748.16;1746253;82;21532;-55
2021/09/26 05:56:16;;;;;;;6.87;3.87;;;;;;;15.21;86.79;100766.16;1746346;82;21528;-51
2021/09/26 05:58:42;;;;;;;5.00;3.15;;;;;;;15.27;86.60;100762.03;1746123;82;20976;-56
2021/09/26 06:01:08;;;;;;;7.25;2.87;;;;;;;15.30;86.62;100767.62;1746545;82;21131;-57
2021/09/26 06:03:35;;;;;;;6.55;3.22;;;;;;;15.28;85.76;100758.96;1746196;82;21497;-54
2021/09/26 06:06:01;;;;;;;5.62;2.75;;;;;;;15.24;86.05;100763.45;1715338;82;21532;-57
2021/09/26 06:08:27;;;;;;;10.05;3.50;;;;;;;15.23;85.99;100761.74;1746201;82;21000;-53
2021/09/26 06:10:54;;;;;;;6.08;2.83;;;;;;;15.22;86.13;100756.13;1746393;82;20909;-55
2021/09/26 06:13:21;;;;;;;8.95;3.20;;;;;;;15.25;86.48;100765.59;1746379;82;21123;-54
2021/09/26 06:15:47;;;;;;;6.40;3.10;;;;;;;15.25;85.40;100760.38;1746548;82;21525;-53
2021/09/26 06:18:13;;;;;;;6.30;2.90;;;;;;;15.23;85.21;100766.96;1746218;82;20893;-54
2021/09/26 06:20:40;;;;;;;4.87;2.95;;;;;;;15.19;84.21;100762.28;1746262;82;20983;-55
2021/09/26 06:23:06;;;;;;;3.40;2.58;;;;;;;15.19;84.75;100757.54;1746176;82;20893;-54
2021/09/26 06:25:32;;;;;;;19.95;3.35;;;;;;;15.28;83.20;100759.83;1746672;82;21707;-53
2021/09/26 06:27:59;;;;;;;6.03;2.77;;;;;;;15.27;81.15;100766.39;1746160;82;20987;-56
2021/09/26 06:30:26;;;;;;;6.17;3.05;;;;;;;15.18;81.47;100760.58;1716584;82;21043;-54
2021/09/26 06:32:52;;;;;;;9.60;2.55;;;;;;;15.16;81.38;100761.55;1746228;81;21525;-54
2021/09/26 06:35:18;;;;;;;5.92;2.47;;;;;;;15.19;82.35;100767.97;1746154;82;20952;-57
2021/09/26 06:37:45;;;;;;;10.15;3.20;;;;;;;15.27;80.45;100766.39;1746214;82;21778;-55
2021/09/26 06:40:12;;;;;;;8.88;2.95;;;;;;;15.30;79.46;100772.83;1746645;82;20968;-55
2021/09/26 06:42:38;;;;;;;7.53;2.60;;;;;;;15.31;78.67;100767.55;1716884;82;20916;-58
2021/09/26 06:45:07;;;;;;;10.90;2.83;;;;;;;15.28;78.29;100778.52;1746272;82;21462;-56
2021/09/26 06:47:34;;;;;;;8.18;2.62;;;;;;;15.29;78.71;100789.38;1716540;82;21039;-56
2021/09/26 06:50:00;;;;;;;6.70;2.72;;;;;;;15.32;78.33;100794.50;1746354;82;21312;-57
2021/09/26 06:52:27;;;;;;;5.22;2.67;;;;;;;15.28;77.27;100786.34;1746195;82;21007;-53
2021/09/26 06:54:53;;;;;;;11.12;3.12;;;;;;;15.29;76.74;100781.56;1746176;82;20944;-56
2021/09/26 06:57:19;;;;;;;4.92;2.95;;;;;;;15.37;76.96;100787.36;1746249;81;20988;-54
2021/09/26 06:59:46;;;;;;;5.08;3.02;;;;;;;15.48;77.46;100785.23;1746362;82;21011;-54
2021/09/26 07:02:13;;;;;;;18.25;2.92;;;;;;;15.56;76.36;100782.84;1746356;82;21130;-55
2021/09/26 07:04:39;;;;;;;6.35;2.80;;;;;;;15.55;73.88;100786.36;1715135;82;21012;-54
2021/09/26 07:07:06;;;;;;;7.28;2.85;;;;;;;15.51;75.13;100780.38;1715215;82;20984;-54
2021/09/26 07:09:32;;;;;;;5.47;2.72;;;;;;;15.54;75.00;100779.44;1746260;82;20944;-55
2021/09/26 07:11:58;;;;;;;6.75;2.80;;;;;;;15.61;76.15;100780.92;1746742;82;21046;-56
2021/09/26 07:14:26;;;;;;;6.97;3.00;;;;;;;15.71;74.63;100797.95;1746218;82;21505;-58
2021/09/26 07:16:52;;;;;;;11.05;2.75;;;;;;;15.80;74.68;100794.17;1746336;82;21011;-57
2021/09/26 07:19:18;;;;;;;7.67;2.50;;;;;;;15.90;75.33;100797.34;1746256;81;20976;-52
2021/09/26 07:21:44;;;;;;;19.98;3.67;;;;;;;16.01;71.52;100796.97;1715126;82;20988;-55
2021/09/26 07:24:11;;;;;;;8.50;2.60;;;;;;;16.03;72.97;100799.91;1746380;82;21526;-58
2021/09/26 07:26:37;;;;;;;14.75;3.27;;;;;;;16.06;73.04;100798.52;1746588;82;21529;-54
2021/09/26 07:29:04;;;;;;;12.58;2.62;;;;;;;16.11;72.33;100799.64;1746287;82;21563;-55
2021/09/26 07:31:30;;;;;;;12.53;3.15;;;;;;;16.01;71.53;100803.03;1746688;82;20965;-58
2021/09/26 07:33:56;;;;;;;11.40;2.98;;;;;;;15.91;72.51;100802.97;1740168;82;20988;-56
2021/09/26 07:36:24;;;;;;;6.55;2.40;;;;;;;15.83;73.17;100814.94;1706593;82;21569;-56
2021/09/26 07:38:50;;;;;;;9.98;3.02;;;;;;;15.75;73.25;100816.97;1738201;82;21493;-56
2021/09/26 07:41:17;;;;;;;10.15;2.90;;;;;;;15.64;73.37;100819.95;1737864;82;21032;-58
2021/09/26 07:43:43;;;;;;;11.40;3.02;;;;;;;15.66;72.29;100820.31;1738225;82;21429;-55
2021/09/26 07:46:10;;;;;;;17.07;3.62;;;;;;;15.85;72.90;100809.68;1738045;82;22276;-55
2021/09/26 07:48:36;;;;;;;11.48;3.45;;;;;;;16.16;72.64;100810.76;1738169;82;21008;-56
2021/09/26 07:51:03;;;;;;;12.37;2.90;;;;;;;16.33;71.19;100815.39;1738137;82;21731;-56
2021/09/26 07:53:30;;;;;;;14.25;3.77;;;;;;;16.35;70.98;100816.19;1738156;82;21537;-57
2021/09/26 07:55:57;;;;;;;8.93;3.10;;;;;;;16.43;70.58;100811.98;1737996;82;21730;-56
2021/09/26 07:58:25;;;;;;;7.67;2.70;;;;;;;16.41;69.45;100824.70;1737954;82;20964;-55
2021/09/26 08:00:51;;;;;;;19.57;3.33;;;;;;;16.33;68.57;100809.30;1738226;82;20992;-57
2021/09/26 08:03:18;;;;;;;146.80;6.70;;;;;;;16.22;70.08;100818.39;1738012;82;21504;-54
2021/09/26 08:05:45;;;;;;;20.37;2.92;;;;;;;16.14;69.60;100816.96;1737976;82;20929;-57
2021/09/26 08:08:11;;;;;;;22.13;3.33;;;;;;;16.08;69.98;100815.41;1737999;82;21558;-54
2021/09/26 08:10:38;;;;;;;131.07;7.00;;;;;;;16.07;69.98;100812.41;1738002;82;21501;-58
2021/09/26 08:13:04;;;;;;;31.45;3.85;;;;;;;16.18;68.89;100810.28;1737916;82;20964;-54
2021/09/26 08:15:31;;;;;;;17.42;3.10;;;;;;;16.34;71.06;100813.17;1706792;82;21189;-56
2021/09/26 08:17:58;;;;;;;6.55;2.85;;;;;;;16.60;68.17;100820.93;1738088;82;21869;-54
2021/09/26 08:20:25;;;;;;;17.70;3.37;;;;;;;16.70;66.82;100824.05;1738138;82;21494;-55
2021/09/26 08:22:52;;;;;;;10.95;2.87;;;;;;;16.79;68.09;100835.45;1738061;82;21034;-53
2021/09/26 08:25:22;;;;;;;6.97;2.25;;;;;;;16.71;67.91;100830.54;1738190;82;21118;-54
2021/09/26 08:27:50;;;;;;;10.75;3.42;;;;;;;16.71;67.46;100835.77;1738079;82;21150;-56
2021/09/26 08:30:18;;;;;;;9.20;2.67;;;;;;;16.80;65.91;100826.25;1705357;82;20992;-57
2021/09/26 08:32:47;;;;;;;12.40;2.85;;;;;;;16.92;66.48;100824.92;1737919;82;20984;-54
2021/09/26 08:35:14;;;;;;;7.45;2.83;;;;;;;16.93;66.23;100825.32;1737963;82;21031;-55
2021/09/26 08:37:42;;;;;;;9.50;3.00;;;;;;;16.85;65.04;100827.39;1737995;82;21059;-56
2021/09/26 08:40:11;;;;;;;7.53;2.98;;;;;;;16.73;65.33;100837.86;1738081;82;21127;-54
2021/09/26 08:42:38;;;;;;;11.90;3.22;;;;;;;16.68;66.15;100838.94;1737941;82;20944;-56
2021/09/26 08:45:07;;;;;;;18.60;3.17;;;;;;;16.76;65.81;100839.49;1706808;82;20980;-56
2021/09/26 08:47:36;;;;;;;11.18;3.37;;;;;;;16.75;65.58;100828.20;1738434;82;21020;-58
2021/09/26 08:50:03;;;;;;;12.28;3.30;;;;;;;16.75;66.21;100836.04;1706607;82;21540;-54
2021/09/26 08:52:31;;;;;;;30.92;4.15;;;;;;;16.85;66.87;100828.70;1707365;82;21121;-57
2021/09/26 08:54:57;;;;;;;14.18;3.60;;;;;;;16.97;66.41;100831.73;1738122;82;21474;-55
2021/09/26 08:57:24;;;;;;;25.55;4.85;;;;;;;17.03;65.35;100841.97;1738032;82;20944;-56
2021/09/26 08:59:50;;;;;;;47.53;6.35;;;;;;;17.19;65.62;100826.55;1738095;82;21036;-57
2021/09/26 09:02:17;;;;;;;16.23;3.80;;;;;;;17.41;65.40;100838.73;1737972;82;21003;-56
2021/09/26 09:04:43;;;;;;;8.43;3.60;;;;;;;17.53;65.31;100843.00;1738149;82;21824;-58
2021/09/26 09:07:11;;;;;;;12.15;3.33;;;;;;;17.52;65.15;100845.70;1738332;82;20972;-54
2021/09/26 09:09:54;;;;;;;8.85;3.05;;;;;;;17.64;63.78;100839.09;1738221;82;21660;-57
2021/09/26 09:12:32;;;;;;;9.13;3.85;;;;;;;17.73;64.40;100842.62;1738298;82;21027;-57
2021/09/26 09:15:15;;;;;;;9.83;3.22;;;;;;;17.68;64.23;100853.75;1705733;82;21043;-55
2021/09/26 09:17:43;;;;;;;6.47;3.22;;;;;;;17.49;65.33;100847.13;1708838;82;21133;-57
2021/09/26 09:20:20;;;;;;;11.40;3.52;;;;;;;17.35;66.41;100846.39;1737901;82;20981;-57
2021/09/26 09:22:51;;;;;;;11.70;3.37;;;;;;;17.27;67.80;100852.38;1738067;82;21589;-58
2021/09/26 09:25:43;;;;;;;21.25;4.00;;;;;;;17.38;66.74;100842.34;1738278;82;21023;-57
2021/09/26 09:28:18;;;;;;;17.98;3.35;;;;;;;17.41;66.88;100845.27;1738161;82;20984;-56
2021/09/26 09:30:51;;;;;;;19.35;4.17;;;;;;;17.19;66.64;100843.08;1738061;82;21085;-58
2021/09/26 09:33:18;;;;;;;11.60;2.85;;;;;;;16.96;67.10;100837.44;1739503;81;21031;-55
2021/09/26 09:35:48;;;;;;;17.67;3.35;;;;;;;16.85;68.37;100853.53;1746176;82;20932;-57
2021/09/26 09:38:30;;;;;;;16.00;3.25;;;;;;;16.76;65.99;100852.56;1746287;81;20936;-56
2021/09/26 09:40:57;;;;;;;21.00;3.67;;;;;;;16.65;67.04;100845.12;1719512;82;21007;-52
2021/09/26 09:43:26;;;;;;;18.90;3.52;;;;;;;16.62;66.57;100850.03;1746428;82;21096;-57
2021/09/26 09:45:59;;;;;;;36.60;3.35;;;;;;;16.52;67.65;100854.74;1746355;82;21585;-53
2021/09/26 09:48:29;;;;;;;25.15;4.20;;;;;;;16.42;67.94;100850.78;1746371;82;20991;-55
2021/09/26 09:51:05;;;;;;;27.82;4.08;;;;;;;16.38;69.12;100856.55;1746510;82;21090;-55
2021/09/26 09:53:45;;;;;;;17.92;3.83;;;;;;;16.43;69.18;100859.02;1715209;82;20953;-57
2021/09/26 09:56:19;;;;;;;9.40;2.77;;;;;;;16.75;68.75;100856.95;1746311;82;21848;-56
2021/09/26 09:58:54;;;;;;;30.57;4.00;;;;;;;17.08;67.30;100852.66;1745730;82;20920;-55
2021/09/26 10:01:36;;;;;;;98.47;5.47;;;;;;;17.26;65.95;100851.98;1715129;82;20987;-54
2021/09/26 10:04:07;;;;;;;20.65;3.40;;;;;;;17.25;64.23;100853.76;1746247;82;21031;-56
2021/09/26 10:06:46;;;;;;;20.17;3.70;;;;;;;17.18;64.69;100865.39;1745697;82;20976;-57
2021/09/26 10:09:26;;;;;;;25.02;3.72;;;;;;;17.23;64.90;100849.05;1716805;82;21745;-57
2021/09/26 10:12:03;;;;;;;15.75;3.22;;;;;;;17.26;63.25;100849.36;1746160;82;20901;-56
2021/09/26 10:14:33;;;;;;;9.03;3.62;;;;;;;16.99;62.70;100852.16;1746212;82;20995;-54
2021/09/26 10:17:01;;;;;;;20.52;3.40;;;;;;;17.00;63.98;100859.09;1746410;81;20967;-55
2021/09/26 10:19:29;;;;;;;17.98;3.47;;;;;;;17.29;64.01;100859.26;1746260;82;20983;-55
2021/09/26 10:21:57;;;;;;;31.85;3.70;;;;;;;17.41;61.81;100868.38;1716419;82;20952;-58
2021/09/26 10:24:27;;;;;;;11.43;2.92;;;;;;;17.26;62.05;100859.39;1716454;82;21592;-57
2021/09/26 10:26:54;;;;;;;18.30;3.02;;;;;;;17.06;61.35;100853.65;1746494;82;20976;-57
2021/09/26 10:29:21;;;;;;;15.75;3.08;;;;;;;16.88;60.90;100846.01;1716584;82;21505;-55
2021/09/26 10:31:49;;;;;;;11.57;3.00;;;;;;;16.69;61.29;100852.41;1746411;82;20975;-55
2021/09/26 10:34:20;;;;;;;10.68;3.12;;;;;;;16.62;61.51;100857.00;1746202;82;21134;-55
2021/09/26 10:36:47;;;;;;;31.40;4.17;;;;;;;16.63;62.04;100846.50;1746152;81;21502;-54
2021/09/26 10:39:14;;;;;;;18.32;3.62;;;;;;;17.01;63.79;100847.28;1746345;82;20999;-54
2021/09/26 10:42:09;;;;;;;18.20;3.55;;;;;;;17.41;63.16;100847.45;1746298;82;21066;-55
2021/09/26 10:44:46;;;;;;;8.33;3.00;;;;;;;17.52;61.48;100849.63;1685566;82;21031;-55
2021/09/26 10:47:24;;;;;;;53.10;4.42;;;;;;;17.40;61.19;100863.19;1746132;82;21738;-56
2021/09/26 10:49:55;;;;;;;21.48;3.52;;;;;;;17.19;61.72;100854.02;1746210;82;20936;-55
2021/09/26 10:52:26;;;;;;;15.25;3.17;;;;;;;17.30;61.16;100871.42;1746669;82;21517;-55
2021/09/26 10:54:53;;;;;;;9.08;2.83;;;;;;;17.49;59.60;100854.52;1746201;82;20988;-55
2021/09/26 10:57:23;;;;;;;20.57;3.77;;;;;;;17.73;60.31;100850.95;1746606;82;20996;-57
2021/09/26 10:59:53;;;;;;;45.95;4.78;;;;;;;18.14;59.97;100857.98;1746298;82;21160;-55
2021/09/26 11:02:28;;;;;;;38.70;4.00;;;;;;;18.41;59.82;100841.94;1746044;82;20948;-56
2021/09/26 11:04:57;;;;;;;51.25;4.05;;;;;;;18.51;57.45;100842.77;1746319;81;20956;-54
2021/09/26 11:07:32;;;;;;;18.48;3.17;;;;;;;18.53;58.60;100859.71;1716292;82;21015;-55
2021/09/26 11:10:02;;;;;;;29.47;3.67;;;;;;;18.42;56.43;100855.43;1746389;82;20905;-55
2021/09/26 11:12:45;;;;;;;15.85;4.10;;;;;;;18.31;56.88;100848.88;1746252;82;21093;-55
2021/09/26 11:15:22;;;;;;;31.02;3.40;;;;;;;18.27;56.46;100855.66;1746180;82;20988;-54
2021/09/26 11:17:56;;;;;;;10.05;2.67;;;;;;;18.26;57.06;100853.48;1746132;82;20996;-56
2021/09/26 11:20:34;;;;;;;9.23;3.17;;;;;;;18.41;56.08;100848.49;1746239;82;21004;-58
2021/09/26 11:23:27;;;;;;;48.25;3.75;;;;;;;18.55;55.45;100851.32;1746434;82;20967;-56
2021/09/26 11:26:04;;;;;;;78.33;5.33;;;;;;;18.73;56.67;100836.98;1746311;82;21844;-57
2021/09/26 11:28:36;;;;;;;52.85;4.70;;;;;;;18.98;55.39;100841.06;1746266;81;20952;-56
2021/09/26 11:31:10;;;;;;;19.60;3.62;;;;;;;18.99;55.13;100842.35;1745685;81;20996;-56
2021/09/26 11:33:59;;;;;;;54.55;4.65;;;;;;;18.85;56.32;100852.16;1716434;82;20944;-55
2021/09/26 11:36:28;;;;;;;93.12;7.62;;;;;;;18.84;54.67;100850.45;1746216;82;21247;-59
2021/09/26 11:38:56;;;;;;;20.45;4.08;;;;;;;18.76;56.22;100850.81;1716317;82;21026;-55
2021/09/26 11:41:37;;;;;;;15.13;3.55;;;;;;;18.76;56.89;100842.94;1715049;82;20976;-57
2021/09/26 11:44:06;;;;;;;28.17;4.62;;;;;;;18.81;55.86;100846.19;1746250;82;21023;-56
2021/09/26 11:46:33;;;;;;;12.63;3.02;;;;;;;18.91;55.86;100844.44;1746134;82;20987;-56
2021/09/26 11:49:03;;;;;;;17.37;2.72;;;;;;;18.90;54.85;100836.18;1746128;82;20996;-56
2021/09/26 11:51:30;;;;;;;8.48;2.42;;;;;;;18.83;54.18;100846.13;1745602;82;21058;-57
2021/09/26 11:53:57;;;;;;;16.80;3.27;;;;;;;18.82;53.72;100845.75;1746415;81;21216;-56
2021/09/26 11:56:30;;;;;;;25.10;3.75;;;;;;;18.87;54.31;100844.20;1715178;82;22173;-54
2021/09/26 11:59:02;;;;;;;15.32;4.45;;;;;;;18.86;54.16;100845.98;1716407;82;21027;-55
2021/09/26 12:01:37;;;;;;;22.45;3.87;;;;;;;18.84;53.95;100843.91;1745921;82;21510;-58